SWA299 KMKE-KDEN
Flight info
| Callsign | SWA299 |
|---|---|
| Flight time | N/A |
| Altitude | 38000 |
| Route | GREAS JAYEX MCW ONL PORDR AALLE4 |
| Aircraft | B38M/M-SDE1FGHILORVWXY/HB1 |
Departure
| Time | 2026-04-29 01:44 |
|---|---|
| Airport | General Mitchell International Airport (KMKE) |
Arrival
| Time | N/A |
|---|---|
| Airport | Denver International Airport (KDEN) |
| Time | Latitude | Longitude | Altitude | Speed | Heading |
|---|---|---|---|---|---|
| 2026-04-29 01:24 | 42.95109 | -87.90026 | 685 ft | 0 kts | 229° |
| 2026-04-29 01:35 | 42.95111 | -87.90023 | 682 ft | 3 kts | 229° |
| 2026-04-29 01:35 | 42.95128 | -87.89996 | 686 ft | 4 kts | 229° |
| 2026-04-29 01:36 | 42.95147 | -87.89974 | 684 ft | 4 kts | 192° |
| 2026-04-29 01:36 | 42.95161 | -87.89979 | 687 ft | 2 kts | 132° |
| 2026-04-29 01:36 | 42.95175 | -87.90000 | 682 ft | 0 kts | 132° |
| 2026-04-29 01:40 | 42.95166 | -87.89986 | 690 ft | 5 kts | 133° |
| 2026-04-29 01:40 | 42.95123 | -87.89925 | 688 ft | 13 kts | 131° |
| 2026-04-29 01:40 | 42.95041 | -87.89817 | 684 ft | 19 kts | 150° |
| 2026-04-29 01:41 | 42.94918 | -87.89720 | 684 ft | 22 kts | 152° |
| 2026-04-29 01:41 | 42.94829 | -87.89702 | 688 ft | 15 kts | 187° |
| 2026-04-29 01:41 | 42.94733 | -87.89635 | 689 ft | 16 kts | 174° |
| 2026-04-29 01:41 | 42.94627 | -87.89586 | 690 ft | 17 kts | 111° |
| 2026-04-29 01:42 | 42.94610 | -87.89416 | 688 ft | 19 kts | 92° |
| 2026-04-29 01:42 | 42.94644 | -87.89231 | 691 ft | 21 kts | 71° |
| 2026-04-29 01:42 | 42.94693 | -87.89032 | 685 ft | 23 kts | 71° |
| 2026-04-29 01:42 | 42.94702 | -87.88896 | 685 ft | 10 kts | 125° |
| 2026-04-29 01:43 | 42.94643 | -87.88864 | 685 ft | 9 kts | 185° |
| 2026-04-29 01:43 | 42.94606 | -87.88910 | 686 ft | 6 kts | 252° |
| 2026-04-29 01:43 | 42.94590 | -87.88978 | 687 ft | 9 kts | 252° |
| 2026-04-29 01:43 | 42.94560 | -87.89098 | 691 ft | 33 kts | 251° |
| 2026-04-29 01:44 | 42.94390 | -87.89801 | 689 ft | 121 kts | 253° |
| 2026-04-29 01:44 | 42.94048 | -87.91214 | 778 ft | 185 kts | 252° |
| 2026-04-29 01:44 | 42.93633 | -87.92949 | 1743 ft | 187 kts | 250° |
| 2026-04-29 01:44 | 42.93228 | -87.94572 | 3115 ft | 175 kts | 253° |
| 2026-04-29 01:45 | 42.92918 | -87.96167 | 4110 ft | 175 kts | 257° |
| 2026-04-29 01:45 | 42.92810 | -87.97882 | 4758 ft | 193 kts | 281° |
| 2026-04-29 01:45 | 42.93141 | -87.99748 | 5360 ft | 214 kts | 282° |
| 2026-04-29 01:45 | 42.93440 | -88.01875 | 5928 ft | 241 kts | 279° |
| 2026-04-29 01:46 | 42.93671 | -88.04246 | 6656 ft | 262 kts | 276° |